Time;durP1;ratioP1;P1;durP2;ratioP2;P2;SDS_P1;SDS_P2;PMS_P1;PMS_P2;Temp;Humidity;BMP_temperature;BMP_pressure;BME280_temperature;BME280_humidity;BME280_pressure;Samples;Min_cycle;Max_cycle;Signal;HPM_P1;HPM_P2
2023/12/07 00:00:55;;;;;;;18.70;9.00;;;;;;;;;;5120476;28;20212;-82
2023/12/07 00:04:35;;;;;;;22.73;9.23;;;;;;;;;;5117089;28;20100;-81
2023/12/07 00:08:19;;;;;;;18.52;8.98;;;;;;;;;;5110913;28;20044;-81
2023/12/07 00:12:00;;;;;;;17.10;8.80;;;;;;;;;;5106195;28;20153;-81
2023/12/07 00:15:41;;;;;;;17.63;8.60;;;;;;;;;;5112251;28;20040;-82
2023/12/07 00:19:21;;;;;;;14.77;8.82;;;;;;;;;;5106857;28;20051;-83
2023/12/07 00:23:03;;;;;;;15.40;8.85;;;;;;;;;;5115637;28;20052;-82
2023/12/07 00:26:46;;;;;;;13.23;8.85;;;;;;;;;;5103835;28;20090;-80
2023/12/07 00:30:26;;;;;;;19.02;8.57;;;;;;;;;;5105943;28;20044;-82
2023/12/07 00:34:09;;;;;;;15.80;9.40;;;;;;;;;;5116821;27;20110;-83
2023/12/07 00:37:48;;;;;;;16.45;8.02;;;;;;;;;;5104694;28;20044;-81
2023/12/07 00:41:30;;;;;;;16.80;8.30;;;;;;;;;;5110563;28;20044;-81
2023/12/07 00:45:14;;;;;;;14.50;8.00;;;;;;;;;;5115165;28;20108;-82
2023/12/07 00:48:57;;;;;;;17.42;8.43;;;;;;;;;;5125059;28;20069;-81
2023/12/07 00:52:39;;;;;;;13.07;7.75;;;;;;;;;;5118402;28;20043;-81
2023/12/07 00:56:19;;;;;;;13.30;7.90;;;;;;;;;;5106658;28;20044;-81
2023/12/07 00:59:59;;;;;;;17.08;8.48;;;;;;;;;;5115938;28;20350;-82
2023/12/07 01:03:41;;;;;;;14.77;7.85;;;;;;;;;;5122210;27;20047;-82
2023/12/07 01:07:21;;;;;;;15.00;7.13;;;;;;;;;;5114286;28;20043;-82
2023/12/07 01:11:01;;;;;;;14.27;8.05;;;;;;;;;;5108393;28;20043;-82
2023/12/07 01:14:42;;;;;;;14.05;7.20;;;;;;;;;;5102616;28;20717;-84
2023/12/07 01:18:22;;;;;;;12.65;7.22;;;;;;;;;;5118008;27;20104;-80
2023/12/07 01:22:03;;;;;;;15.68;7.10;;;;;;;;;;5114137;28;20051;-82
2023/12/07 01:25:43;;;;;;;13.25;7.05;;;;;;;;;;5106587;28;20062;-83
2023/12/07 01:29:23;;;;;;;16.08;7.13;;;;;;;;;;5109455;28;20050;-83
2023/12/07 01:33:04;;;;;;;12.70;7.07;;;;;;;;;;5113357;27;20075;-81
2023/12/07 01:36:44;;;;;;;13.25;7.30;;;;;;;;;;5113177;28;20039;-78
2023/12/07 01:40:25;;;;;;;10.15;7.13;;;;;;;;;;5112785;28;20048;-81
2023/12/07 01:44:05;;;;;;;12.73;7.97;;;;;;;;;;5120043;28;20410;-81
2023/12/07 01:47:45;;;;;;;17.23;8.02;;;;;;;;;;5117404;28;20039;-81
2023/12/07 01:51:26;;;;;;;13.07;7.97;;;;;;;;;;5114873;28;20048;-80
2023/12/07 01:55:06;;;;;;;15.25;8.05;;;;;;;;;;5107487;28;20109;-81
2023/12/07 01:58:48;;;;;;;11.70;7.70;;;;;;;;;;5102344;28;20545;-81
2023/12/07 02:02:28;;;;;;;12.48;7.30;;;;;;;;;;5099796;27;20046;-82
2023/12/07 02:06:10;;;;;;;19.88;8.27;;;;;;;;;;5116841;28;20082;-82
2023/12/07 02:09:50;;;;;;;15.60;8.00;;;;;;;;;;5120611;28;20039;-80
2023/12/07 02:13:32;;;;;;;19.58;7.55;;;;;;;;;;5114973;28;20267;-82
2023/12/07 02:17:15;;;;;;;13.38;8.15;;;;;;;;;;5118449;28;20136;-81
2023/12/07 02:20:54;;;;;;;13.18;8.30;;;;;;;;;;5100560;28;20055;-80
2023/12/07 02:24:36;;;;;;;16.95;8.02;;;;;;;;;;5109903;27;20081;-81
2023/12/07 02:28:17;;;;;;;13.13;8.07;;;;;;;;;;5104371;28;20074;-80
2023/12/07 02:31:58;;;;;;;14.27;7.75;;;;;;;;;;5108236;28;20120;-80
2023/12/07 02:35:41;;;;;;;14.52;8.05;;;;;;;;;;5109720;27;20530;-80
2023/12/07 02:39:22;;;;;;;13.13;7.90;;;;;;;;;;5103553;28;20052;-82
2023/12/07 02:43:03;;;;;;;11.70;7.55;;;;;;;;;;5105585;28;20044;-82
2023/12/07 02:46:43;;;;;;;11.35;7.35;;;;;;;;;;5111840;28;20035;-81
2023/12/07 02:50:23;;;;;;;12.20;7.60;;;;;;;;;;5099097;28;20156;-81
2023/12/07 02:54:04;;;;;;;11.02;7.70;;;;;;;;;;5101290;28;20043;-81
2023/12/07 02:57:45;;;;;;;15.48;8.05;;;;;;;;;;5108616;27;20093;-80
2023/12/07 03:01:25;;;;;;;12.15;7.63;;;;;;;;;;5096595;28;20048;-81
2023/12/07 03:05:06;;;;;;;14.05;8.38;;;;;;;;;;5110411;28;20051;-81
2023/12/07 03:08:46;;;;;;;18.70;8.90;;;;;;;;;;5110833;28;20044;-80
2023/12/07 03:12:26;;;;;;;14.13;8.18;;;;;;;;;;5111145;28;20237;-79
2023/12/07 03:16:08;;;;;;;15.85;8.35;;;;;;;;;;5108936;28;20039;-79
2023/12/07 03:19:49;;;;;;;10.07;7.55;;;;;;;;;;5116893;28;20253;-80
2023/12/07 03:23:31;;;;;;;12.10;7.43;;;;;;;;;;5111159;28;20122;-80
2023/12/07 03:27:11;;;;;;;14.73;8.35;;;;;;;;;;5110552;28;20054;-81
2023/12/07 03:30:52;;;;;;;18.40;7.80;;;;;;;;;;5121099;28;20260;-81
2023/12/07 03:34:49;;;;;;;10.98;7.15;;;;;;;;;;5110959;28;20589;-80
2023/12/07 03:38:31;;;;;;;17.58;8.10;;;;;;;;;;5108602;28;20515;-82
2023/12/07 03:42:11;;;;;;;17.23;7.47;;;;;;;;;;5089255;28;20105;-80
2023/12/07 03:45:52;;;;;;;14.55;7.13;;;;;;;;;;5105604;28;20054;-79
2023/12/07 03:49:34;;;;;;;11.70;6.88;;;;;;;;;;5103803;28;20169;-80
2023/12/07 03:53:20;;;;;;;10.75;6.05;;;;;;;;;;5093616;28;20062;-79
2023/12/07 03:57:07;;;;;;;13.23;7.15;;;;;;;;;;5115723;28;20051;-80
2023/12/07 04:00:47;;;;;;;11.70;7.05;;;;;;;;;;5107156;28;20134;-82
2023/12/07 04:04:29;;;;;;;11.88;6.72;;;;;;;;;;5123282;27;20097;-80
2023/12/07 04:08:09;;;;;;;11.27;6.38;;;;;;;;;;5121651;28;20163;-81
2023/12/07 04:11:50;;;;;;;9.55;5.93;;;;;;;;;;5111610;28;20067;-81
2023/12/07 04:15:31;;;;;;;9.23;5.78;;;;;;;;;;5117673;28;20078;-81
2023/12/07 04:19:11;;;;;;;8.82;5.53;;;;;;;;;;5103487;27;20054;-81
2023/12/07 04:22:52;;;;;;;9.63;5.78;;;;;;;;;;5103742;28;20097;-81
2023/12/07 04:26:32;;;;;;;7.03;5.50;;;;;;;;;;5123481;28;20048;-80
2023/12/07 04:30:14;;;;;;;9.90;5.07;;;;;;;;;;5120628;28;20070;-80
2023/12/07 04:33:54;;;;;;;10.63;5.70;;;;;;;;;;5104877;28;20040;-83
2023/12/07 04:37:35;;;;;;;9.20;5.60;;;;;;;;;;5108050;28;20107;-81
2023/12/07 04:41:16;;;;;;;6.53;5.00;;;;;;;;;;5115784;28;20099;-80
2023/12/07 04:44:56;;;;;;;11.43;5.45;;;;;;;;;;5107325;28;20058;-81
2023/12/07 04:48:37;;;;;;;8.93;5.13;;;;;;;;;;5109277;28;20070;-77
2023/12/07 04:52:17;;;;;;;8.95;5.13;;;;;;;;;;5105322;28;20051;-81
2023/12/07 04:55:57;;;;;;;7.97;5.20;;;;;;;;;;5094801;28;20399;-81
2023/12/07 04:59:38;;;;;;;6.78;5.10;;;;;;;;;;5108079;27;20537;-80
2023/12/07 05:03:19;;;;;;;8.20;5.13;;;;;;;;;;5109681;27;20139;-81
2023/12/07 05:07:01;;;;;;;9.05;5.78;;;;;;;;;;5109831;27;20412;-82
2023/12/07 05:10:41;;;;;;;9.88;5.43;;;;;;;;;;5107919;28;20260;-80
2023/12/07 05:14:26;;;;;;;8.82;4.97;;;;;;;;;;5113471;28;20039;-81
2023/12/07 05:18:06;;;;;;;12.70;4.93;;;;;;;;;;5111607;27;20035;-81
2023/12/07 05:21:51;;;;;;;9.00;4.70;;;;;;;;;;5111946;28;20108;-82
2023/12/07 05:25:33;;;;;;;11.65;5.80;;;;;;;;;;5096643;28;20071;-72
2023/12/07 05:29:13;;;;;;;10.55;5.32;;;;;;;;;;5111372;28;20062;-81
2023/12/07 05:32:54;;;;;;;8.32;4.47;;;;;;;;;;5117561;27;20090;-85
2023/12/07 05:36:35;;;;;;;8.73;5.60;;;;;;;;;;5107407;27;20047;-82
2023/12/07 05:40:16;;;;;;;6.18;4.65;;;;;;;;;;5117199;27;20054;-81
2023/12/07 05:44:00;;;;;;;8.90;4.78;;;;;;;;;;5107908;28;20115;-82
2023/12/07 05:47:40;;;;;;;9.00;4.18;;;;;;;;;;5130542;27;20042;-80
2023/12/07 05:51:23;;;;;;;9.98;4.55;;;;;;;;;;5123923;28;20039;-83
2023/12/07 05:55:05;;;;;;;6.18;4.38;;;;;;;;;;5115782;28;20067;-81
2023/12/07 05:58:45;;;;;;;10.65;4.60;;;;;;;;;;5102863;28;20599;-84
2023/12/07 06:02:26;;;;;;;9.07;4.43;;;;;;;;;;5117656;28;20061;-84
2023/12/07 06:06:10;;;;;;;9.63;4.43;;;;;;;;;;5117500;28;20080;-84
2023/12/07 06:09:48;;;;;;;8.82;4.80;;;;;;;;;;5115951;28;20156;-84
2023/12/07 06:13:29;;;;;;;9.38;4.78;;;;;;;;;;5118209;28;20055;-82
2023/12/07 06:17:11;;;;;;;11.00;4.90;;;;;;;;;;5116494;28;20047;-82
2023/12/07 06:20:51;;;;;;;9.68;4.38;;;;;;;;;;5117793;28;20039;-80
2023/12/07 06:24:32;;;;;;;7.70;4.05;;;;;;;;;;5109664;28;20533;-83
2023/12/07 06:28:12;;;;;;;8.82;4.07;;;;;;;;;;5119212;28;20051;-82
2023/12/07 06:31:54;;;;;;;8.73;4.20;;;;;;;;;;5128649;28;20033;-82
2023/12/07 06:35:35;;;;;;;10.18;5.40;;;;;;;;;;5122035;27;20034;-82
2023/12/07 06:39:14;;;;;;;8.82;5.15;;;;;;;;;;5112676;28;20047;-81
2023/12/07 06:43:02;;;;;;;8.52;5.18;;;;;;;;;;5116451;28;20469;-82
2023/12/07 06:46:43;;;;;;;8.68;5.20;;;;;;;;;;5111398;28;20044;-81
2023/12/07 06:50:25;;;;;;;14.60;5.35;;;;;;;;;;5112191;28;20092;-81
2023/12/07 06:54:06;;;;;;;14.40;5.72;;;;;;;;;;5107968;28;20055;-81
2023/12/07 06:57:46;;;;;;;10.80;5.25;;;;;;;;;;5117391;27;20043;-82
2023/12/07 07:01:29;;;;;;;8.90;5.13;;;;;;;;;;5109781;28;20039;-84
2023/12/07 07:05:11;;;;;;;10.20;5.38;;;;;;;;;;5113102;28;20103;-82
2023/12/07 07:08:50;;;;;;;10.30;5.25;;;;;;;;;;5111972;28;20058;-81
2023/12/07 07:12:31;;;;;;;9.27;5.38;;;;;;;;;;5105529;28;20039;-77
2023/12/07 07:16:14;;;;;;;13.38;5.20;;;;;;;;;;5122371;28;20487;-81
2023/12/07 07:19:55;;;;;;;10.70;5.13;;;;;;;;;;5109745;27;20054;-82
2023/12/07 07:23:36;;;;;;;11.07;5.18;;;;;;;;;;5110604;28;20058;-84
2023/12/07 07:27:17;;;;;;;8.70;5.25;;;;;;;;;;5093927;28;20066;-79
2023/12/07 07:31:03;;;;;;;9.48;5.55;;;;;;;;;;5113854;28;20047;-78
2023/12/07 07:34:44;;;;;;;8.80;5.20;;;;;;;;;;5121321;28;20233;-82
2023/12/07 07:38:24;;;;;;;10.85;4.72;;;;;;;;;;5127325;28;20043;-83
2023/12/07 07:42:08;;;;;;;9.80;5.50;;;;;;;;;;5124715;28;20619;-82
2023/12/07 07:45:50;;;;;;;7.07;5.00;;;;;;;;;;5129231;28;20565;-83
2023/12/07 07:49:31;;;;;;;12.77;5.15;;;;;;;;;;5137869;27;20055;-81
2023/12/07 07:53:13;;;;;;;10.93;5.40;;;;;;;;;;5119790;28;20040;-83
2023/12/07 07:56:57;;;;;;;8.98;5.15;;;;;;;;;;5121831;27;20156;-82
2023/12/07 08:00:40;;;;;;;10.65;5.53;;;;;;;;;;5107943;28;20043;-83
2023/12/07 08:04:22;;;;;;;9.88;5.30;;;;;;;;;;5119542;27;20054;-78
2023/12/07 08:08:02;;;;;;;11.10;5.30;;;;;;;;;;5104139;28;20056;-79
2023/12/07 08:11:44;;;;;;;14.57;5.80;;;;;;;;;;5115000;28;20100;-80
2023/12/07 08:15:28;;;;;;;14.63;5.13;;;;;;;;;;5110975;27;20044;-77
2023/12/07 08:19:09;;;;;;;8.80;5.20;;;;;;;;;;5105839;28;20051;-80
2023/12/07 08:22:49;;;;;;;10.77;5.18;;;;;;;;;;5100857;27;20416;-80
2023/12/07 08:26:30;;;;;;;10.07;5.05;;;;;;;;;;5097279;28;20064;-73
2023/12/07 08:30:11;;;;;;;14.20;4.88;;;;;;;;;;5116547;27;20051;-81
2023/12/07 08:33:53;;;;;;;9.98;5.15;;;;;;;;;;5113190;27;20051;-80
2023/12/07 08:37:34;;;;;;;10.18;5.40;;;;;;;;;;5116210;27;20035;-80
2023/12/07 08:41:14;;;;;;;15.35;5.38;;;;;;;;;;5111774;27;20310;-79
2023/12/07 08:44:54;;;;;;;19.27;7.18;;;;;;;;;;5105967;27;20039;-80
2023/12/07 08:48:37;;;;;;;15.90;6.97;;;;;;;;;;5112016;27;20066;-76
2023/12/07 08:52:18;;;;;;;20.17;8.13;;;;;;;;;;5108427;28;20492;-81
2023/12/07 08:55:58;;;;;;;19.35;8.73;;;;;;;;;;5100923;28;20048;-78
2023/12/07 08:59:41;;;;;;;24.10;8.60;;;;;;;;;;5104081;27;20043;-76
2023/12/07 09:03:27;;;;;;;23.80;9.18;;;;;;;;;;5112446;28;20055;-78
2023/12/07 09:07:03;;;;;;;24.23;9.25;;;;;;;;;;5103736;28;20118;-78
2023/12/07 09:10:43;;;;;;;17.35;7.95;;;;;;;;;;5115890;28;20047;-81
2023/12/07 09:14:26;;;;;;;20.33;7.75;;;;;;;;;;5104417;27;20039;-79
2023/12/07 09:18:07;;;;;;;11.02;6.75;;;;;;;;;;5099802;27;20079;-82
2023/12/07 09:21:47;;;;;;;13.85;6.68;;;;;;;;;;5105360;28;20082;-79
2023/12/07 09:25:29;;;;;;;15.35;6.93;;;;;;;;;;5102309;27;20052;-74
2023/12/07 09:29:11;;;;;;;11.50;5.88;;;;;;;;;;5103683;27;20055;-77
2023/12/07 09:32:52;;;;;;;9.60;5.13;;;;;;;;;;5106896;27;20048;-77
2023/12/07 09:36:33;;;;;;;12.07;5.70;;;;;;;;;;5106320;28;20134;-76
2023/12/07 09:40:13;;;;;;;11.25;5.43;;;;;;;;;;5110796;28;20047;-76
2023/12/07 09:43:55;;;;;;;12.52;6.45;;;;;;;;;;5103654;27;20532;-79
2023/12/07 09:47:35;;;;;;;15.73;6.32;;;;;;;;;;5100563;28;20040;-75
2023/12/07 09:51:16;;;;;;;10.98;5.68;;;;;;;;;;5097988;28;20103;-76
2023/12/07 09:54:56;;;;;;;10.98;5.97;;;;;;;;;;5100199;28;20043;-79
2023/12/07 09:58:36;;;;;;;14.75;6.18;;;;;;;;;;5101949;28;20131;-78
2023/12/07 10:02:17;;;;;;;11.85;5.70;;;;;;;;;;5101940;27;20086;-64
2023/12/07 10:05:56;;;;;;;10.43;5.75;;;;;;;;;;5103661;28;20084;-76
2023/12/07 10:09:35;;;;;;;14.85;6.43;;;;;;;;;;5104572;28;20349;-74
2023/12/07 10:13:17;;;;;;;14.55;6.35;;;;;;;;;;5103387;27;20050;-75
2023/12/07 10:16:57;;;;;;;14.35;6.57;;;;;;;;;;5105740;27;20092;-73
2023/12/07 10:20:47;;;;;;;12.60;6.00;;;;;;;;;;5094673;27;20085;-77
2023/12/07 10:24:28;;;;;;;13.70;5.45;;;;;;;;;;5100110;28;20074;-75
2023/12/07 10:28:08;;;;;;;11.23;4.70;;;;;;;;;;5104095;28;20214;-76
2023/12/07 10:31:48;;;;;;;11.55;3.30;;;;;;;;;;5096153;28;20062;-75
2023/12/07 10:35:29;;;;;;;7.00;1.98;;;;;;;;;;5101011;28;20063;-74
2023/12/07 10:39:14;;;;;;;2.70;1.50;;;;;;;;;;5101855;27;20054;-74
2023/12/07 10:42:56;;;;;;;4.55;1.80;;;;;;;;;;5107696;28;20130;-76
2023/12/07 10:46:38;;;;;;;6.95;3.08;;;;;;;;;;5095046;28;20047;-74
2023/12/07 10:50:18;;;;;;;4.85;1.80;;;;;;;;;;5106169;27;20086;-75
2023/12/07 10:54:02;;;;;;;4.85;2.00;;;;;;;;;;5107187;28;20032;-74
2023/12/07 10:57:46;;;;;;;5.97;1.92;;;;;;;;;;5110853;28;20834;-76
2023/12/07 11:01:25;;;;;;;2.63;1.58;;;;;;;;;;5103399;28;20130;-77
2023/12/07 11:05:06;;;;;;;3.65;1.88;;;;;;;;;;5091982;28;20743;-74
2023/12/07 11:08:26;;;;;;;4.88;1.90;;;;;;;;;;5103311;28;20039;-74
2023/12/07 11:12:21;;;;;;;3.65;1.73;;;;;;;;;;5098061;28;20496;-74
2023/12/07 11:16:02;;;;;;;3.77;1.60;;;;;;;;;;5092774;28;20053;-74
2023/12/07 11:19:35;;;;;;;4.85;2.00;;;;;;;;;;5090281;28;20051;-74
2023/12/07 11:23:15;;;;;;;10.70;1.88;;;;;;;;;;5099030;28;20040;-72
2023/12/07 11:26:55;;;;;;;6.97;2.30;;;;;;;;;;5095338;28;20291;-74
2023/12/07 11:30:36;;;;;;;3.28;1.70;;;;;;;;;;5098555;28;20540;-74
2023/12/07 11:34:17;;;;;;;4.43;1.92;;;;;;;;;;5102761;28;20111;-74
2023/12/07 11:37:56;;;;;;;5.35;2.00;;;;;;;;;;5100993;28;20036;-76
2023/12/07 11:41:39;;;;;;;2.55;1.70;;;;;;;;;;5091252;28;20483;-74
2023/12/07 11:45:20;;;;;;;4.60;1.98;;;;;;;;;;5098879;28;20061;-75
2023/12/07 11:49:00;;;;;;;2.25;1.35;;;;;;;;;;5097504;28;20044;-75
2023/12/07 11:52:40;;;;;;;2.80;2.00;;;;;;;;;;5102807;28;20498;-75
2023/12/07 11:56:21;;;;;;;3.70;1.52;;;;;;;;;;5103473;28;20336;-78
2023/12/07 12:00:02;;;;;;;4.18;1.73;;;;;;;;;;5101674;28;20089;-75
2023/12/07 12:03:43;;;;;;;2.55;1.70;;;;;;;;;;5103525;28;20055;-75
2023/12/07 12:07:26;;;;;;;6.63;2.15;;;;;;;;;;5098876;28;20092;-76
2023/12/07 12:11:06;;;;;;;4.18;1.73;;;;;;;;;;5097997;28;20040;-75
2023/12/07 12:14:47;;;;;;;6.30;2.10;;;;;;;;;;5099218;28;20511;-76
2023/12/07 12:18:27;;;;;;;8.35;2.05;;;;;;;;;;5106935;28;20047;-75
2023/12/07 12:22:07;;;;;;;4.75;1.70;;;;;;;;;;5103439;28;20047;-74
2023/12/07 12:25:48;;;;;;;7.32;2.15;;;;;;;;;;5100473;27;20055;-73
2023/12/07 12:29:29;;;;;;;2.63;1.70;;;;;;;;;;5100031;28;20515;-74
2023/12/07 12:33:09;;;;;;;4.80;1.33;;;;;;;;;;5107649;27;20043;-75
2023/12/07 12:36:51;;;;;;;5.47;1.98;;;;;;;;;;5095504;28;20039;-74
2023/12/07 12:40:33;;;;;;;2.00;1.77;;;;;;;;;;5103050;28;20130;-73
2023/12/07 12:44:14;;;;;;;3.22;1.50;;;;;;;;;;5101328;27;20043;-74
2023/12/07 12:47:54;;;;;;;4.60;1.60;;;;;;;;;;5103898;28;20047;-73
2023/12/07 12:51:36;;;;;;;2.47;1.50;;;;;;;;;;5096776;28;20460;-74
2023/12/07 12:55:15;;;;;;;2.85;1.40;;;;;;;;;;5097879;28;20120;-75
2023/12/07 12:58:58;;;;;;;5.40;1.52;;;;;;;;;;5101153;27;20711;-71
2023/12/07 13:02:38;;;;;;;3.97;1.45;;;;;;;;;;5099444;28;20047;-75
2023/12/07 13:06:17;;;;;;;4.47;1.45;;;;;;;;;;5101486;27;20056;-72
2023/12/07 13:09:57;;;;;;;4.72;1.55;;;;;;;;;;5091956;28;20046;-74
2023/12/07 13:13:39;;;;;;;3.88;1.45;;;;;;;;;;5102490;28;20063;-74
2023/12/07 13:17:19;;;;;;;4.03;1.50;;;;;;;;;;5102148;27;20115;-74
2023/12/07 13:21:02;;;;;;;4.43;1.38;;;;;;;;;;5097927;27;20090;-73
2023/12/07 13:24:41;;;;;;;2.47;1.40;;;;;;;;;;5104134;27;20127;-78
2023/12/07 13:28:23;;;;;;;2.00;1.40;;;;;;;;;;5097575;27;20123;-77
2023/12/07 13:32:05;;;;;;;3.95;1.90;;;;;;;;;;5095436;27;20040;-73
2023/12/07 13:35:52;;;;;;;4.35;1.75;;;;;;;;;;5101000;28;20083;-71
2023/12/07 13:39:32;;;;;;;4.45;1.60;;;;;;;;;;5096399;27;20066;-77
2023/12/07 13:43:13;;;;;;;5.28;1.70;;;;;;;;;;5100695;28;20039;-78
2023/12/07 13:46:53;;;;;;;2.30;1.42;;;;;;;;;;5101223;27;20556;-75
2023/12/07 13:50:36;;;;;;;2.53;1.67;;;;;;;;;;5098952;28;20100;-75
2023/12/07 13:54:16;;;;;;;6.28;1.60;;;;;;;;;;5098337;28;20050;-74
2023/12/07 13:58:00;;;;;;;3.30;1.70;;;;;;;;;;5102295;28;20228;-76
2023/12/07 14:01:40;;;;;;;3.33;1.92;;;;;;;;;;5098828;28;20052;-74
2023/12/07 14:05:21;;;;;;;3.45;1.83;;;;;;;;;;5099435;27;20460;-74
2023/12/07 14:09:01;;;;;;;3.13;1.63;;;;;;;;;;5102404;27;20135;-76
2023/12/07 14:12:41;;;;;;;2.33;1.70;;;;;;;;;;5090920;28;20133;-70
2023/12/07 14:16:22;;;;;;;4.05;1.83;;;;;;;;;;5091290;28;20093;-78
2023/12/07 14:20:03;;;;;;;5.43;2.10;;;;;;;;;;5093539;28;20054;-79
2023/12/07 14:23:42;;;;;;;2.60;1.80;;;;;;;;;;5103864;28;20141;-79
2023/12/07 14:27:25;;;;;;;2.78;1.95;;;;;;;;;;5087400;28;20048;-75
2023/12/07 14:31:06;;;;;;;5.97;2.00;;;;;;;;;;5099750;28;20380;-75
2023/12/07 14:34:45;;;;;;;4.32;2.05;;;;;;;;;;5100722;28;20044;-76
2023/12/07 14:38:26;;;;;;;6.63;2.30;;;;;;;;;;5106570;28;20047;-75
2023/12/07 14:42:07;;;;;;;3.95;2.13;;;;;;;;;;5104794;28;20476;-76
2023/12/07 14:45:50;;;;;;;4.93;1.80;;;;;;;;;;5092228;28;20125;-74
2023/12/07 14:49:32;;;;;;;5.15;2.08;;;;;;;;;;5088466;28;20048;-75
2023/12/07 14:53:12;;;;;;;18.17;13.13;;;;;;;;;;5101920;28;20130;-72
2023/12/07 14:56:57;;;;;;;4.35;1.90;;;;;;;;;;5096384;28;20499;-73
2023/12/07 15:00:38;;;;;;;2.55;1.88;;;;;;;;;;5094554;28;20507;-75
2023/12/07 15:04:19;;;;;;;3.03;1.92;;;;;;;;;;5102936;28;20086;-75
2023/12/07 15:07:59;;;;;;;3.83;1.85;;;;;;;;;;5097807;28;20044;-75
2023/12/07 15:11:40;;;;;;;7.18;2.03;;;;;;;;;;5107282;28;20351;-74
2023/12/07 15:15:21;;;;;;;6.13;2.13;;;;;;;;;;5100583;28;20043;-74
2023/12/07 15:19:08;;;;;;;3.80;1.98;;;;;;;;;;5109734;28;20103;-78
2023/12/07 15:22:49;;;;;;;5.35;1.98;;;;;;;;;;5092405;28;20054;-75
2023/12/07 15:26:31;;;;;;;6.05;2.20;;;;;;;;;;5098692;28;20436;-73
2023/12/07 15:30:15;;;;;;;5.00;2.28;;;;;;;;;;5097552;28;20048;-74
2023/12/07 15:33:55;;;;;;;3.60;2.28;;;;;;;;;;5103657;28;20044;-73
2023/12/07 15:37:37;;;;;;;4.18;2.10;;;;;;;;;;5097646;28;20079;-75
2023/12/07 15:41:18;;;;;;;5.25;2.00;;;;;;;;;;5091877;28;20077;-73
2023/12/07 15:44:59;;;;;;;4.78;2.13;;;;;;;;;;5096483;28;20090;-74
2023/12/07 15:48:40;;;;;;;3.15;1.90;;;;;;;;;;5101990;28;20061;-73
2023/12/07 15:52:21;;;;;;;4.22;1.85;;;;;;;;;;5093153;28;20136;-74
2023/12/07 15:56:03;;;;;;;5.22;1.90;;;;;;;;;;5099130;28;20062;-74
2023/12/07 15:59:46;;;;;;;3.75;2.25;;;;;;;;;;5101732;28;20040;-73
2023/12/07 16:03:28;;;;;;;3.22;1.90;;;;;;;;;;5104328;27;20523;-73
2023/12/07 16:07:07;;;;;;;3.05;1.73;;;;;;;;;;5110704;28;20089;-73
2023/12/07 16:10:47;;;;;;;2.75;1.80;;;;;;;;;;5108466;28;20043;-74
2023/12/07 16:14:29;;;;;;;2.45;1.52;;;;;;;;;;5093566;27;20535;-73
2023/12/07 16:18:09;;;;;;;5.95;1.75;;;;;;;;;;5104179;27;20518;-73
2023/12/07 16:21:49;;;;;;;2.17;1.55;;;;;;;;;;5103178;27;20036;-73
2023/12/07 16:25:30;;;;;;;2.33;1.48;;;;;;;;;;5099443;28;20333;-75
2023/12/07 16:29:10;;;;;;;3.30;1.60;;;;;;;;;;5104353;28;20500;-74
2023/12/07 16:32:51;;;;;;;4.15;1.90;;;;;;;;;;5104497;28;20047;-76
2023/12/07 16:36:36;;;;;;;3.03;1.75;;;;;;;;;;5098571;27;20036;-73
2023/12/07 16:40:16;;;;;;;3.05;1.67;;;;;;;;;;5095456;28;20412;-74
2023/12/07 16:43:59;;;;;;;3.25;1.73;;;;;;;;;;5108053;28;20122;-75
2023/12/07 16:47:39;;;;;;;5.30;1.52;;;;;;;;;;5112396;27;20507;-75
2023/12/07 16:51:22;;;;;;;4.63;1.83;;;;;;;;;;5109923;28;20205;-75
2023/12/07 16:55:02;;;;;;;2.90;1.70;;;;;;;;;;5103832;28;20503;-75
2023/12/07 16:58:43;;;;;;;3.42;1.90;;;;;;;;;;5105349;28;20079;-73
2023/12/07 17:02:25;;;;;;;5.35;1.80;;;;;;;;;;5107657;28;20503;-76
2023/12/07 17:06:09;;;;;;;6.25;1.98;;;;;;;;;;5103776;27;20043;-74
2023/12/07 17:09:47;;;;;;;7.82;1.80;;;;;;;;;;5093898;28;20047;-74
2023/12/07 17:13:28;;;;;;;8.20;2.40;;;;;;;;;;5093274;28;20051;-74
2023/12/07 17:17:09;;;;;;;5.63;2.30;;;;;;;;;;5105859;28;20040;-74
2023/12/07 17:20:49;;;;;;;5.47;2.20;;;;;;;;;;5107191;28;20047;-76
2023/12/07 17:24:30;;;;;;;6.18;2.10;;;;;;;;;;5099799;27;20136;-73
2023/12/07 17:28:10;;;;;;;3.83;2.17;;;;;;;;;;5105358;28;20100;-72
2023/12/07 17:31:53;;;;;;;6.88;1.98;;;;;;;;;;5101814;28;20332;-73
2023/12/07 17:35:34;;;;;;;3.78;2.20;;;;;;;;;;5096822;28;20044;-75
2023/12/07 17:39:16;;;;;;;6.90;2.25;;;;;;;;;;5106525;28;20116;-75
2023/12/07 17:42:57;;;;;;;5.75;2.60;;;;;;;;;;5103255;28;20158;-75
2023/12/07 17:46:36;;;;;;;4.28;2.45;;;;;;;;;;5099989;28;20047;-75
2023/12/07 17:50:17;;;;;;;5.70;2.15;;;;;;;;;;5096000;28;20044;-75
2023/12/07 17:53:57;;;;;;;3.97;2.20;;;;;;;;;;5100847;28;20106;-73
2023/12/07 17:57:40;;;;;;;2.42;2.13;;;;;;;;;;5102195;28;20404;-75
2023/12/07 18:01:25;;;;;;;3.78;2.17;;;;;;;;;;5102110;28;20201;-74
2023/12/07 18:05:05;;;;;;;6.70;2.28;;;;;;;;;;5096191;27;20039;-73
2023/12/07 18:08:45;;;;;;;3.83;2.28;;;;;;;;;;5103723;27;20442;-73
2023/12/07 18:12:28;;;;;;;5.53;2.45;;;;;;;;;;5105134;28;20056;-75
2023/12/07 18:16:08;;;;;;;3.70;2.42;;;;;;;;;;5100924;28;20113;-74
2023/12/07 18:19:49;;;;;;;6.90;2.40;;;;;;;;;;5101158;28;20054;-74
2023/12/07 18:23:30;;;;;;;3.47;2.25;;;;;;;;;;5101213;28;20058;-74
2023/12/07 18:27:10;;;;;;;4.07;2.60;;;;;;;;;;5106354;27;20039;-75
2023/12/07 18:30:51;;;;;;;8.57;2.50;;;;;;;;;;5106945;27;20507;-72
2023/12/07 18:34:32;;;;;;;5.30;2.90;;;;;;;;;;5093606;27;20063;-72
2023/12/07 18:38:12;;;;;;;5.55;2.42;;;;;;;;;;5105076;28;20151;-73
2023/12/07 18:41:53;;;;;;;5.95;2.80;;;;;;;;;;5102220;28;20035;-75
2023/12/07 18:45:35;;;;;;;6.80;2.83;;;;;;;;;;5096421;28;20055;-76
2023/12/07 18:49:16;;;;;;;5.65;3.00;;;;;;;;;;5104458;27;20055;-77
2023/12/07 18:52:56;;;;;;;5.43;2.70;;;;;;;;;;5107835;28;20043;-77
2023/12/07 18:56:37;;;;;;;4.65;2.50;;;;;;;;;;5111744;28;20427;-75
2023/12/07 19:00:20;;;;;;;3.85;2.80;;;;;;;;;;5097728;28;20039;-75
2023/12/07 19:04:03;;;;;;;5.72;2.88;;;;;;;;;;5100833;27;20143;-79
2023/12/07 19:07:44;;;;;;;4.47;2.83;;;;;;;;;;5092046;28;20051;-84
2023/12/07 19:11:24;;;;;;;8.43;2.75;;;;;;;;;;5102966;27;20107;-80
2023/12/07 19:15:06;;;;;;;4.38;2.67;;;;;;;;;;5086393;28;20079;-78
2023/12/07 19:18:48;;;;;;;6.57;3.00;;;;;;;;;;5106054;28;20059;-76
2023/12/07 19:22:28;;;;;;;5.47;2.38;;;;;;;;;;5097838;27;20048;-75
2023/12/07 19:26:09;;;;;;;4.80;2.60;;;;;;;;;;5104956;27;20132;-75
2023/12/07 19:29:49;;;;;;;3.50;2.17;;;;;;;;;;5101899;28;20143;-77
2023/12/07 19:33:30;;;;;;;3.97;2.67;;;;;;;;;;5091438;27;20223;-79
2023/12/07 19:37:11;;;;;;;4.93;3.03;;;;;;;;;;5099476;28;20444;-76
2023/12/07 19:40:51;;;;;;;4.80;2.58;;;;;;;;;;5102376;28;20399;-79
2023/12/07 19:44:31;;;;;;;2.50;2.10;;;;;;;;;;5095062;28;20036;-78
2023/12/07 19:48:12;;;;;;;3.13;1.80;;;;;;;;;;5110040;28;20051;-78
2023/12/07 19:51:54;;;;;;;3.40;2.08;;;;;;;;;;5109563;28;20250;-77
2023/12/07 19:55:34;;;;;;;3.40;2.05;;;;;;;;;;5100694;28;20043;-77
2023/12/07 19:59:14;;;;;;;6.43;2.65;;;;;;;;;;5084595;28;20051;-82
2023/12/07 20:02:55;;;;;;;3.97;2.30;;;;;;;;;;5095844;28;20039;-78
2023/12/07 20:06:37;;;;;;;2.38;1.92;;;;;;;;;;5098582;28;20040;-76
2023/12/07 20:10:17;;;;;;;1.65;1.50;;;;;;;;;;5100934;28;20075;-79
2023/12/07 20:13:58;;;;;;;2.95;2.38;;;;;;;;;;5108310;28;20055;-75
2023/12/07 20:17:42;;;;;;;4.43;2.53;;;;;;;;;;5106014;28;20072;-78
2023/12/07 20:21:22;;;;;;;5.10;2.00;;;;;;;;;;5093624;28;20506;-76
2023/12/07 20:25:04;;;;;;;4.15;3.20;;;;;;;;;;5099299;28;20579;-72
2023/12/07 20:28:46;;;;;;;8.30;6.07;;;;;;;;;;5095736;28;20056;-75
2023/12/07 20:32:25;;;;;;;3.35;2.00;;;;;;;;;;5099356;28;20413;-77
2023/12/07 20:36:05;;;;;;;2.95;2.03;;;;;;;;;;5095959;28;20502;-77
2023/12/07 20:39:45;;;;;;;2.83;1.95;;;;;;;;;;5099444;28;20285;-75
2023/12/07 20:43:26;;;;;;;5.15;2.50;;;;;;;;;;5097201;28;20373;-71
2023/12/07 20:47:06;;;;;;;3.22;1.90;;;;;;;;;;5103255;28;20051;-75
2023/12/07 20:50:48;;;;;;;3.08;2.00;;;;;;;;;;5096372;28;20426;-74
2023/12/07 20:54:30;;;;;;;5.90;2.33;;;;;;;;;;5107008;28;20051;-73
2023/12/07 20:58:09;;;;;;;4.25;2.40;;;;;;;;;;5096785;27;20119;-73
2023/12/07 21:01:50;;;;;;;6.53;2.72;;;;;;;;;;5106617;27;20581;-73
2023/12/07 21:05:31;;;;;;;7.30;3.40;;;;;;;;;;5102506;27;20131;-75
2023/12/07 21:09:12;;;;;;;11.40;5.32;;;;;;;;;;5097721;28;20058;-72
2023/12/07 21:12:56;;;;;;;6.93;4.10;;;;;;;;;;5098776;28;20043;-75
2023/12/07 21:16:33;;;;;;;4.78;3.10;;;;;;;;;;5099709;28;20669;-73
2023/12/07 21:20:13;;;;;;;6.68;2.85;;;;;;;;;;5102398;28;20051;-74
2023/12/07 21:23:53;;;;;;;6.95;3.53;;;;;;;;;;5103713;28;20939;-74
2023/12/07 21:27:37;;;;;;;5.75;3.55;;;;;;;;;;5107564;27;20044;-75
2023/12/07 21:31:19;;;;;;;7.88;3.53;;;;;;;;;;5099124;27;20055;-71
2023/12/07 21:35:00;;;;;;;5.32;3.63;;;;;;;;;;5099128;27;20059;-74
2023/12/07 21:38:41;;;;;;;6.40;4.13;;;;;;;;;;5095814;28;20055;-74
2023/12/07 21:42:26;;;;;;;4.72;2.80;;;;;;;;;;5113034;28;20040;-70
2023/12/07 21:46:07;;;;;;;4.05;2.75;;;;;;;;;;5091484;28;20644;-70
2023/12/07 21:49:47;;;;;;;4.85;2.33;;;;;;;;;;5100630;27;20074;-69
2023/12/07 21:53:28;;;;;;;4.07;2.33;;;;;;;;;;5097531;28;20039;-69
2023/12/07 21:57:09;;;;;;;5.97;2.45;;;;;;;;;;5101730;27;20040;-69